Fidelity, Missouri
Current Conditions -  °F | °C
As of 12:53 AM on Monday 24 Nov 2014 (Local Time) from KJLN Reporting Station
Broken Clouds Broken Clouds  
Wind Chill: 36°   Ceiling: 11000
Heat Index: 42°   Visibility: 10mi
Dew Point: 36°   Wind: 12mph
Humidity: 79%   Direction: 290°WNW
Pressure: 29.61"   Gusts: NA
Location:  37.1542°N, 94.2882°W
Report Text: KJLN 240653Z AUTO 29010KT 10SM BKN110 06/02 A2961 RMK AO2 RAE02 SLP025 P0000 T00560022
Loading
Personal Weather Stations






























Interactive Weather Map New forecast layout! Learn more

10-Day Weather Forecast

Advertisements
Track Severe Weather on mobile